Time;durP1;ratioP1;P1;durP2;ratioP2;P2;SDS_P1;SDS_P2;PMS_P1;PMS_P2;Temp;Humidity;BMP_temperature;BMP_pressure;BME280_temperature;BME280_humidity;BME280_pressure;Samples;Min_cycle;Max_cycle;Signal;HPM_P1;HPM_P2
2022/08/02 00:00:42;;;;;;;1.30;1.03;;;;;25.40;100799.00;;;;2087345;28;20216;-52
2022/08/02 00:01:43;;;;;;;1.30;1.20;;;;;25.40;100797.00;;;;2087654;28;20240;-53
2022/08/02 00:02:44;;;;;;;1.40;1.30;;;;;25.50;100793.00;;;;2087498;28;20274;-53
2022/08/02 00:03:44;;;;;;;1.70;1.37;;;;;25.40;100799.00;;;;2087283;28;20223;-53
2022/08/02 00:04:45;;;;;;;1.30;1.17;;;;;25.50;100793.00;;;;2086786;28;20914;-53
2022/08/02 00:05:45;;;;;;;1.60;1.30;;;;;25.40;100807.00;;;;2086860;28;20607;-53
2022/08/02 00:06:45;;;;;;;1.43;1.33;;;;;25.40;100797.00;;;;2087400;28;20220;-53
2022/08/02 00:07:46;;;;;;;1.23;1.10;;;;;25.50;100805.00;;;;2086041;28;20205;-53
2022/08/02 00:08:46;;;;;;;2.07;1.57;;;;;25.40;100798.00;;;;2086830;28;20225;-53
2022/08/02 00:09:46;;;;;;;1.40;1.13;;;;;25.40;100797.00;;;;2087210;28;20213;-53
2022/08/02 00:10:47;;;;;;;1.20;1.10;;;;;25.50;100794.00;;;;2086234;28;20217;-53
2022/08/02 00:11:47;;;;;;;2.07;1.23;;;;;25.40;100801.00;;;;2087533;28;20213;-53
2022/08/02 00:12:47;;;;;;;2.50;1.33;;;;;25.40;100796.00;;;;2087641;28;20208;-53
2022/08/02 00:13:48;;;;;;;1.50;1.40;;;;;25.40;100794.00;;;;2087310;28;20209;-53
2022/08/02 00:14:48;;;;;;;1.10;1.00;;;;;25.40;100798.00;;;;2087135;28;20262;-53
2022/08/02 00:15:48;;;;;;;1.37;1.23;;;;;25.40;100800.00;;;;2081543;28;20578;-53
2022/08/02 00:16:49;;;;;;;1.27;1.17;;;;;25.40;100805.00;;;;2079373;28;20574;-53
2022/08/02 00:17:49;;;;;;;1.37;1.27;;;;;25.40;100798.00;;;;2078473;28;20312;-53
2022/08/02 00:18:49;;;;;;;1.57;1.30;;;;;25.40;100796.00;;;;2078900;28;20224;-53
2022/08/02 00:19:50;;;;;;;1.40;1.30;;;;;25.40;100799.00;;;;2079414;28;20225;-53
2022/08/02 00:20:50;;;;;;;1.47;1.13;;;;;25.40;100804.00;;;;2085768;28;20364;-53
2022/08/02 00:21:50;;;;;;;1.23;1.13;;;;;25.40;100808.00;;;;2087405;28;20221;-53
2022/08/02 00:22:51;;;;;;;1.43;1.30;;;;;25.40;100803.00;;;;2087444;28;20211;-53
2022/08/02 00:23:51;;;;;;;1.30;1.20;;;;;25.40;100805.00;;;;2085020;28;20263;-53
2022/08/02 00:24:52;;;;;;;1.40;1.00;;;;;25.40;100799.00;;;;2079217;28;20484;-53
2022/08/02 00:25:52;;;;;;;1.90;1.30;;;;;25.40;100801.00;;;;2079123;28;20224;-53
2022/08/02 00:26:52;;;;;;;1.67;1.10;;;;;25.40;100795.00;;;;2079192;28;20228;-53
2022/08/02 00:27:53;;;;;;;1.40;1.30;;;;;25.40;100798.00;;;;2077824;28;20312;-53
2022/08/02 00:28:53;;;;;;;1.40;1.30;;;;;25.40;100793.00;;;;2079174;28;20253;-53
2022/08/02 00:29:54;;;;;;;1.30;1.20;;;;;25.40;100797.00;;;;2079060;28;20226;-53
2022/08/02 00:30:56;;;;;;;1.20;1.10;;;;;25.40;100797.00;;;;2086777;28;20223;-53
2022/08/02 00:31:56;;;;;;;1.30;1.20;;;;;25.40;100791.00;;;;2087458;28;20217;-53
2022/08/02 00:32:56;;;;;;;1.50;1.40;;;;;25.40;100796.00;;;;2087339;28;20217;-53
2022/08/02 00:33:57;;;;;;;1.63;1.40;;;;;25.40;100801.00;;;;2086853;28;20212;-53
2022/08/02 00:34:57;;;;;;;1.17;1.07;;;;;25.40;100800.00;;;;2079362;28;20221;-53
2022/08/02 00:35:57;;;;;;;1.23;1.13;;;;;25.40;100796.00;;;;2079166;28;20240;-53
2022/08/02 00:36:58;;;;;;;1.57;1.47;;;;;25.40;100797.00;;;;2079200;28;20303;-53
2022/08/02 00:37:58;;;;;;;1.43;1.33;;;;;25.40;100791.00;;;;2078357;28;20559;-53
2022/08/02 00:38:58;;;;;;;1.37;1.13;;;;;25.40;100790.00;;;;2078791;28;20229;-54
2022/08/02 00:40:00;;;;;;;1.30;1.20;;;;;25.40;100792.00;;;;2079152;28;20225;-53
2022/08/02 00:41:01;;;;;;;1.40;1.30;;;;;25.40;100797.00;;;;2078822;28;20262;-53
2022/08/02 00:42:01;;;;;;;1.60;1.10;;;;;25.40;100800.00;;;;2079180;28;20456;-54
2022/08/02 00:43:09;;;;;;;1.57;1.30;;;;;25.40;100793.00;;;;2078936;28;20236;-53
2022/08/02 00:44:09;;;;;;;1.25;1.15;;;;;25.40;100797.00;;;;2077733;28;20632;-53
2022/08/02 00:45:10;;;;;;;1.30;1.20;;;;;25.40;100797.00;;;;2076759;28;20218;-53
2022/08/02 00:46:10;;;;;;;1.80;1.40;;;;;25.40;100796.00;;;;2079038;28;20221;-53
2022/08/02 00:47:10;;;;;;;1.60;1.40;;;;;25.40;100786.00;;;;2083840;28;20294;-53
2022/08/02 00:48:11;;;;;;;1.40;1.30;;;;;25.40;100789.00;;;;2086128;28;20224;-53
2022/08/02 00:49:11;;;;;;;1.40;1.17;;;;;25.40;100794.00;;;;2087000;28;20244;-53
2022/08/02 00:50:12;;;;;;;1.63;1.30;;;;;25.40;100797.00;;;;2087274;28;20885;-53
2022/08/02 00:51:12;;;;;;;1.47;1.20;;;;;25.40;100794.00;;;;2087236;28;20223;-53
2022/08/02 00:52:12;;;;;;;1.47;1.20;;;;;25.40;100807.00;;;;2087401;28;20217;-54
2022/08/02 00:53:13;;;;;;;1.67;1.43;;;;;25.40;100788.00;;;;2087285;28;20244;-53
2022/08/02 00:54:13;;;;;;;1.40;1.20;;;;;25.40;100795.00;;;;2087004;28;20308;-53
2022/08/02 00:55:13;;;;;;;1.57;1.40;;;;;25.40;100788.00;;;;2086278;28;20251;-53
2022/08/02 00:56:14;;;;;;;2.00;1.40;;;;;25.40;100788.00;;;;2087258;28;20268;-53
2022/08/02 00:57:14;;;;;;;1.63;1.53;;;;;25.40;100788.00;;;;2086586;28;20224;-53
2022/08/02 00:58:14;;;;;;;1.53;1.30;;;;;25.40;100784.00;;;;2086536;28;20302;-52
2022/08/02 00:59:15;;;;;;;1.60;1.10;;;;;25.40;100795.00;;;;2087030;28;20228;-53
2022/08/02 01:00:15;;;;;;;1.87;1.50;;;;;25.40;100787.00;;;;2085702;28;20229;-53
2022/08/02 01:01:16;;;;;;;1.70;1.30;;;;;25.40;100788.00;;;;2080103;28;20221;-53
2022/08/02 01:02:16;;;;;;;1.33;1.23;;;;;25.40;100781.00;;;;2077608;28;20225;-53
2022/08/02 01:03:16;;;;;;;1.57;1.20;;;;;25.40;100788.00;;;;2077982;28;20225;-53
2022/08/02 01:04:17;;;;;;;1.63;1.53;;;;;25.40;100795.00;;;;2077398;28;20229;-53
2022/08/02 01:05:17;;;;;;;1.40;1.30;;;;;25.40;100835.00;;;;2078380;28;20221;-53
2022/08/02 01:06:17;;;;;;;1.73;1.40;;;;;25.40;100794.00;;;;2075520;28;20224;-53
2022/08/02 01:07:18;;;;;;;1.33;1.20;;;;;25.40;100793.00;;;;2077734;28;20228;-52
2022/08/02 01:08:18;;;;;;;1.30;1.20;;;;;25.40;100797.00;;;;2081195;28;20326;-53
2022/08/02 01:09:18;;;;;;;1.53;1.43;;;;;25.40;100797.00;;;;2078018;28;20220;-53
2022/08/02 01:10:19;;;;;;;1.77;1.67;;;;;25.40;100795.00;;;;2078195;28;20218;-53
2022/08/02 01:11:20;;;;;;;1.43;1.33;;;;;25.40;100826.00;;;;2077883;28;20267;-53
2022/08/02 01:12:20;;;;;;;1.90;1.20;;;;;25.40;100792.00;;;;2078079;28;20968;-53
2022/08/02 01:13:20;;;;;;;2.03;1.27;;;;;25.40;100790.00;;;;2078042;28;20740;-53
2022/08/02 01:14:23;;;;;;;1.30;1.20;;;;;25.40;100794.00;;;;2077963;28;20604;-53
2022/08/02 01:15:23;;;;;;;2.25;1.05;;;;;25.40;100789.00;;;;2069292;28;20210;-53
2022/08/02 01:16:25;;;;;;;1.30;1.03;;;;;25.40;100788.00;;;;2061850;28;20207;-53
2022/08/02 01:17:33;;;;;;;1.75;1.35;;;;;25.40;100794.00;;;;2074319;28;20217;-53
2022/08/02 01:18:37;;;;;;;1.60;1.30;;;;;25.40;100792.00;;;;2070946;28;20272;-53
2022/08/02 01:19:56;;;;;;;1.80;1.55;;;;;25.40;100788.00;;;;2058867;28;20230;-53
2022/08/02 01:21:09;;;;;;;1.70;1.42;;;;;25.40;100780.00;;;;2073106;28;20221;-53
2022/08/02 01:22:46;;;;;;;3.08;1.52;;;;;25.40;100779.00;;;;2086278;28;20213;-53
2022/08/02 01:23:53;;;;;;;1.67;1.38;;;;;25.40;100779.00;;;;2078677;28;20285;-53
2022/08/02 01:25:10;;;;;;;1.60;1.35;;;;;25.40;100771.00;;;;2078047;28;20221;-53
2022/08/02 01:26:31;;;;;;;1.85;1.30;;;;;25.40;100769.00;;;;2077787;28;20221;-53
2022/08/02 01:27:46;;;;;;;1.20;1.10;;;;;25.40;100776.00;;;;2084282;28;20208;-53
2022/08/02 01:29:15;;;;;;;1.40;1.30;;;;;25.30;100775.00;;;;2085759;28;21009;-53
2022/08/02 01:30:15;;;;;;;1.50;1.27;;;;;25.30;100772.00;;;;2085047;28;20231;-52
2022/08/02 01:31:21;;;;;;;1.70;1.40;;;;;25.40;100785.00;;;;2078139;28;20313;-53
2022/08/02 01:32:24;;;;;;;1.25;1.15;;;;;24.70;100781.00;;;;2077887;28;20245;-53
2022/08/02 01:33:27;;;;;;;1.30;1.20;;;;;25.40;100756.00;;;;2078072;28;20861;-53
2022/08/02 01:34:37;;;;;;;2.10;1.33;;;;;25.30;100772.00;;;;2074588;28;20308;-53
2022/08/02 01:35:40;;;;;;;2.17;1.20;;;;;25.40;100771.00;;;;2076218;28;20441;-52
2022/08/02 01:36:44;;;;;;;1.47;1.30;;;;;25.30;100778.00;;;;2086284;28;20263;-53
2022/08/02 01:37:50;;;;;;;2.10;1.30;;;;;25.30;100769.00;;;;2084980;28;20478;-55
2022/08/02 01:38:51;;;;;;;1.67;1.40;;;;;25.30;100775.00;;;;2086034;28;20459;-53
2022/08/02 01:39:54;;;;;;;1.43;1.30;;;;;25.40;100774.00;;;;2085140;28;20565;-53
2022/08/02 01:40:55;;;;;;;1.33;1.20;;;;;25.30;100772.00;;;;2070169;28;20531;-53
2022/08/02 01:41:55;;;;;;;1.33;1.20;;;;;25.30;100771.00;;;;2076904;28;20456;-53
2022/08/02 01:42:57;;;;;;;1.37;1.27;;;;;25.40;100777.00;;;;2077914;28;20214;-53
2022/08/02 01:43:58;;;;;;;1.30;1.13;;;;;25.30;100761.00;;;;2077802;28;20205;-53
2022/08/02 01:44:58;;;;;;;2.67;1.53;;;;;25.30;100755.00;;;;2078202;28;20217;-53
2022/08/02 01:45:59;;;;;;;1.50;1.40;;;;;25.30;100733.00;;;;2069768;28;20452;-53
2022/08/02 01:47:04;;;;;;;1.70;1.60;;;;;25.30;100769.00;;;;2077895;28;20209;-53
2022/08/02 01:48:05;;;;;;;1.50;1.30;;;;;25.40;100754.00;;;;2077694;28;20217;-53
2022/08/02 01:49:06;;;;;;;1.77;1.47;;;;;25.30;100754.00;;;;2070278;28;21881;-53
2022/08/02 01:50:07;;;;;;;2.78;1.50;;;;;25.30;100761.00;;;;2070060;28;20230;-53
2022/08/02 01:51:10;;;;;;;1.40;1.30;;;;;25.30;100738.00;;;;2078148;28;20225;-53
2022/08/02 01:52:22;;;;;;;1.45;1.35;;;;;25.30;100765.00;;;;2077349;28;20452;-53
2022/08/02 01:53:24;;;;;;;1.48;1.38;;;;;25.30;100765.00;;;;2081113;28;20209;-53
2022/08/02 01:54:25;;;;;;;1.50;1.20;;;;;25.30;100767.00;;;;2073452;28;20210;-52
2022/08/02 01:55:28;;;;;;;1.33;1.20;;;;;25.30;100759.00;;;;2078185;28;20823;-53
2022/08/02 01:56:28;;;;;;;1.43;1.33;;;;;25.30;100757.00;;;;2069639;28;20559;-53
2022/08/02 01:57:48;;;;;;;1.33;1.23;;;;;25.30;100767.00;;;;2052837;28;20459;-53
2022/08/02 01:58:49;;;;;;;1.87;1.40;;;;;25.30;100725.00;;;;2064200;28;20214;-53
2022/08/02 01:59:49;;;;;;;1.60;1.50;;;;;25.30;100764.00;;;;2069884;28;20449;-54
2022/08/02 02:00:49;;;;;;;1.57;1.40;;;;;25.30;100757.00;;;;2069835;28;20256;-53
2022/08/02 02:01:50;;;;;;;1.73;1.50;;;;;25.30;100759.00;;;;2082057;28;20212;-53
2022/08/02 02:02:51;;;;;;;1.50;1.40;;;;;25.30;100764.00;;;;2086240;28;20232;-53
2022/08/02 02:03:52;;;;;;;2.00;1.60;;;;;25.30;100759.00;;;;2086048;28;20295;-53
2022/08/02 02:04:52;;;;;;;2.07;1.40;;;;;25.30;100735.00;;;;2077674;28;20452;-53
2022/08/02 02:05:54;;;;;;;1.60;1.47;;;;;25.30;100760.00;;;;2074287;28;20214;-54
2022/08/02 02:06:55;;;;;;;1.30;1.20;;;;;25.30;100753.00;;;;2063685;28;20234;-53
2022/08/02 02:07:56;;;;;;;1.67;1.43;;;;;25.30;100755.00;;;;2070503;28;20461;-53
2022/08/02 02:08:56;;;;;;;1.50;1.40;;;;;25.30;100755.00;;;;2071169;28;20996;-53
2022/08/02 02:09:57;;;;;;;1.37;1.27;;;;;25.30;100756.00;;;;2087318;28;20539;-53
2022/08/02 02:10:57;;;;;;;1.40;1.20;;;;;25.30;100755.00;;;;2071347;28;20213;-53
2022/08/02 02:11:58;;;;;;;2.03;1.53;;;;;25.30;100758.00;;;;2087854;28;20735;-53
2022/08/02 02:13:04;;;;;;;1.60;1.50;;;;;25.30;100749.00;;;;2087681;28;20201;-53
2022/08/02 02:14:04;;;;;;;1.50;1.40;;;;;25.30;100860.00;;;;2087700;28;20240;-53
2022/08/02 02:15:07;;;;;;;1.70;1.53;;;;;25.30;100751.00;;;;2087634;28;21076;-52
2022/08/02 02:16:07;;;;;;;2.20;1.42;;;;;25.30;100755.00;;;;2071529;28;20214;-53
2022/08/02 02:17:07;;;;;;;1.50;1.40;;;;;25.30;100730.00;;;;2079468;28;20263;-53
2022/08/02 02:18:08;;;;;;;1.47;1.37;;;;;25.30;100757.00;;;;2086837;28;20205;-53
2022/08/02 02:19:08;;;;;;;1.73;1.30;;;;;25.30;100751.00;;;;2087524;28;20209;-53
2022/08/02 02:20:13;;;;;;;1.47;1.37;;;;;25.30;100748.00;;;;2087568;28;20259;-53
2022/08/02 02:21:13;;;;;;;1.20;1.10;;;;;25.30;100757.00;;;;2080136;28;20210;-53
2022/08/02 02:22:14;;;;;;;1.30;1.20;;;;;25.30;100746.00;;;;2082505;28;21018;-53
2022/08/02 02:23:16;;;;;;;2.07;1.10;;;;;25.30;100743.00;;;;2081896;28;20231;-53
2022/08/02 02:24:16;;;;;;;1.60;1.40;;;;;25.30;100752.00;;;;2087419;28;20217;-53
2022/08/02 02:25:18;;;;;;;1.87;1.43;;;;;25.30;100753.00;;;;2087375;28;20461;-52
2022/08/02 02:26:18;;;;;;;1.90;1.70;;;;;25.30;100755.00;;;;2087601;28;20217;-53
2022/08/02 02:27:19;;;;;;;1.60;1.30;;;;;25.30;100784.00;;;;2087183;28;20494;-53
2022/08/02 02:28:28;;;;;;;1.50;1.40;;;;;25.30;100759.00;;;;2080190;28;20409;-53
2022/08/02 02:29:29;;;;;;;1.83;1.40;;;;;25.30;100753.00;;;;2078061;28;20760;-53
2022/08/02 02:30:30;;;;;;;1.20;1.10;;;;;25.30;100752.00;;;;2080068;28;20214;-53
2022/08/02 02:31:36;;;;;;;1.50;1.40;;;;;25.30;100746.00;;;;2075554;28;20313;-52
2022/08/02 02:32:36;;;;;;;2.13;1.40;;;;;25.30;100737.00;;;;2079205;28;20972;-53
2022/08/02 02:33:40;;;;;;;1.40;1.27;;;;;25.30;100749.00;;;;2079441;28;20224;-53
2022/08/02 02:34:42;;;;;;;2.35;1.67;;;;;25.30;100749.00;;;;2079235;28;20205;-53
2022/08/02 02:35:42;;;;;;;1.50;1.40;;;;;25.30;100744.00;;;;2079447;28;20226;-53
2022/08/02 02:36:48;;;;;;;1.50;1.40;;;;;25.30;100757.00;;;;2079297;28;20452;-53
2022/08/02 02:37:48;;;;;;;1.75;1.60;;;;;25.30;100752.00;;;;2078575;28;20213;-53
2022/08/02 02:38:49;;;;;;;1.23;1.13;;;;;25.30;100746.00;;;;2083869;28;20755;-53
2022/08/02 02:39:50;;;;;;;1.53;1.40;;;;;25.30;100742.00;;;;2079566;28;20209;-53
2022/08/02 02:40:50;;;;;;;1.40;1.20;;;;;25.30;100698.00;;;;2087535;28;20216;-53
2022/08/02 02:41:50;;;;;;;1.50;1.40;;;;;25.30;100747.00;;;;2071805;28;20222;-53
2022/08/02 02:42:51;;;;;;;1.60;1.50;;;;;25.30;100750.00;;;;2079354;28;20210;-53
2022/08/02 02:43:53;;;;;;;1.57;1.20;;;;;25.30;100743.00;;;;2076426;28;20244;-53
2022/08/02 02:44:53;;;;;;;1.45;1.35;;;;;25.30;100742.00;;;;2080517;28;20232;-57
2022/08/02 02:45:54;;;;;;;1.50;1.30;;;;;25.30;100733.00;;;;2078959;28;20233;-57
2022/08/02 02:46:54;;;;;;;1.90;1.67;;;;;25.30;100734.00;;;;2079106;28;20280;-55
2022/08/02 02:47:54;;;;;;;1.70;1.60;;;;;25.30;100745.00;;;;2078002;28;21101;-55
2022/08/02 02:48:55;;;;;;;1.30;1.10;;;;;25.30;100740.00;;;;2078763;28;20470;-53
2022/08/02 02:49:56;;;;;;;1.40;1.30;;;;;25.30;100742.00;;;;2078989;28;20318;-53
2022/08/02 02:50:56;;;;;;;1.67;1.57;;;;;25.30;100738.00;;;;2078836;28;20218;-52
2022/08/02 02:51:56;;;;;;;1.93;1.70;;;;;25.30;100736.00;;;;2078981;28;20759;-53
2022/08/02 02:52:57;;;;;;;1.70;1.60;;;;;25.30;100733.00;;;;2077258;28;20682;-53
2022/08/02 02:53:57;;;;;;;1.70;1.27;;;;;25.30;100731.00;;;;2079048;28;20202;-53
2022/08/02 02:54:58;;;;;;;1.67;1.57;;;;;25.30;100731.00;;;;2079084;28;20198;-53
2022/08/02 02:55:58;;;;;;;1.63;1.30;;;;;25.30;100729.00;;;;2079282;28;20205;-53
2022/08/02 02:56:58;;;;;;;1.90;1.30;;;;;25.30;100758.00;;;;2078369;28;20206;-53
2022/08/02 02:57:58;;;;;;;1.97;1.50;;;;;25.30;100724.00;;;;2078185;28;20280;-53
2022/08/02 02:58:59;;;;;;;1.70;1.60;;;;;25.30;100726.00;;;;2079152;28;20373;-53
2022/08/02 03:00:00;;;;;;;1.50;1.20;;;;;25.30;100709.00;;;;2078711;28;20291;-52
2022/08/02 03:02:19;;;;;;;1.53;1.43;;;;;25.30;100711.00;;;;2079922;28;20213;-53
2022/08/02 03:03:19;;;;;;;2.50;1.50;;;;;25.30;100718.00;;;;2067483;28;20450;-53
2022/08/02 03:04:20;;;;;;;1.70;1.47;;;;;25.30;100738.00;;;;2070371;28;20221;-53
2022/08/02 03:05:21;;;;;;;1.90;1.50;;;;;25.30;100717.00;;;;2078913;28;20209;-53
2022/08/02 03:06:21;;;;;;;1.77;1.40;;;;;25.30;100712.00;;;;2079210;28;20590;-53
2022/08/02 03:07:21;;;;;;;1.30;1.20;;;;;25.30;100712.00;;;;2078425;28;20837;-53
2022/08/02 03:08:22;;;;;;;1.87;1.40;;;;;25.30;100608.00;;;;2079101;28;20300;-53
2022/08/02 03:09:22;;;;;;;1.43;1.33;;;;;25.30;100717.00;;;;2078962;28;20623;-52
2022/08/02 03:10:22;;;;;;;1.27;1.03;;;;;25.30;100581.00;;;;2079152;28;20637;-53
2022/08/02 03:11:23;;;;;;;1.80;1.60;;;;;25.30;100719.00;;;;2081257;28;20608;-53
2022/08/02 03:12:24;;;;;;;1.40;1.17;;;;;25.30;100725.00;;;;2078947;28;20644;-52
2022/08/02 03:13:24;;;;;;;1.40;1.30;;;;;25.30;100718.00;;;;2071679;28;20226;-53
2022/08/02 03:14:24;;;;;;;2.03;1.60;;;;;25.30;100717.00;;;;2070758;28;20229;-53
2022/08/02 03:15:26;;;;;;;1.37;1.27;;;;;25.30;100725.00;;;;2070721;28;20299;-53
2022/08/02 03:16:29;;;;;;;1.48;1.38;;;;;25.30;100721.00;;;;2080674;28;20229;-53
2022/08/02 03:17:39;;;;;;;1.55;1.40;;;;;25.30;100715.00;;;;2078330;28;20237;-53
2022/08/02 03:18:41;;;;;;;2.00;1.40;;;;;25.30;100719.00;;;;2079587;28;20737;-53
2022/08/02 03:19:41;;;;;;;1.77;1.65;;;;;25.30;100695.00;;;;2079646;28;20464;-53
2022/08/02 03:20:42;;;;;;;1.67;1.57;;;;;25.30;100724.00;;;;2079088;28;20236;-53
2022/08/02 03:21:42;;;;;;;1.57;1.47;;;;;25.30;100715.00;;;;2078940;28;20471;-53
2022/08/02 03:22:43;;;;;;;1.53;1.40;;;;;25.30;100722.00;;;;2079806;28;20232;-53
2022/08/02 03:23:43;;;;;;;1.77;1.47;;;;;25.30;100715.00;;;;2079497;28;20690;-53
2022/08/02 03:24:44;;;;;;;1.40;1.30;;;;;25.30;100717.00;;;;2082799;28;20212;-53
2022/08/02 03:25:44;;;;;;;1.77;1.40;;;;;25.30;100735.00;;;;2079603;28;20244;-53
2022/08/02 03:26:44;;;;;;;1.60;1.50;;;;;25.30;100728.00;;;;2079645;28;20218;-53
2022/08/02 03:27:45;;;;;;;1.43;1.30;;;;;25.30;100729.00;;;;2078902;28;20228;-53
2022/08/02 03:28:45;;;;;;;1.53;1.20;;;;;25.20;100731.00;;;;2079643;28;20255;-53
2022/08/02 03:29:46;;;;;;;1.30;1.20;;;;;25.30;100723.00;;;;2084983;28;20696;-53
2022/08/02 03:30:46;;;;;;;1.20;1.00;;;;;25.20;100729.00;;;;2087939;28;20224;-53
2022/08/02 03:31:46;;;;;;;1.47;1.10;;;;;25.20;100723.00;;;;2088075;28;20209;-52
2022/08/02 03:32:47;;;;;;;1.80;1.30;;;;;25.20;100728.00;;;;2086752;28;20269;-53
2022/08/02 03:33:47;;;;;;;1.10;1.00;;;;;25.20;100534.00;;;;2086912;28;20296;-53
2022/08/02 03:34:47;;;;;;;1.53;1.30;;;;;25.20;100714.00;;;;2086977;28;20641;-53
2022/08/02 03:35:48;;;;;;;1.30;1.20;;;;;25.30;100717.00;;;;2086964;28;20579;-53
2022/08/02 03:36:50;;;;;;;1.17;1.05;;;;;25.30;100718.00;;;;2087224;28;20217;-53
2022/08/02 03:37:52;;;;;;;1.60;1.50;;;;;25.20;100719.00;;;;2080995;28;20229;-53
2022/08/02 03:38:52;;;;;;;1.50;1.20;;;;;25.20;100683.00;;;;2078844;28;20222;-53
2022/08/02 03:39:52;;;;;;;1.80;1.37;;;;;25.20;100698.00;;;;2079008;28;20607;-53
2022/08/02 03:40:53;;;;;;;1.30;1.20;;;;;25.20;100673.00;;;;2070644;28;20271;-53
2022/08/02 03:41:53;;;;;;;1.50;1.40;;;;;25.20;100704.00;;;;2071887;28;20636;-53
2022/08/02 03:42:53;;;;;;;1.73;1.30;;;;;25.20;100699.00;;;;2078624;28;20336;-53
2022/08/02 03:43:54;;;;;;;1.50;1.40;;;;;25.20;100705.00;;;;2078861;28;20210;-53
2022/08/02 03:44:54;;;;;;;1.50;1.00;;;;;25.20;100696.00;;;;2078625;28;20212;-53
2022/08/02 03:45:55;;;;;;;1.73;1.50;;;;;25.20;100663.00;;;;2078926;28;20205;-53
2022/08/02 03:46:55;;;;;;;1.37;1.27;;;;;25.20;100701.00;;;;2087016;28;20217;-53
2022/08/02 03:47:55;;;;;;;1.37;1.27;;;;;25.20;100691.00;;;;2077953;28;20272;-52
2022/08/02 03:48:56;;;;;;;1.50;1.40;;;;;25.20;100698.00;;;;2078684;28;20221;-52
2022/08/02 03:49:56;;;;;;;1.20;1.10;;;;;25.20;100674.00;;;;2074468;28;20237;-53
2022/08/02 03:50:56;;;;;;;1.60;1.40;;;;;25.20;100698.00;;;;2070720;28;20240;-53
2022/08/02 03:51:57;;;;;;;1.30;1.20;;;;;25.20;100704.00;;;;2070367;28;20305;-53
2022/08/02 03:52:58;;;;;;;1.53;1.40;;;;;25.20;100709.00;;;;2074249;28;20258;-53
2022/08/02 03:53:59;;;;;;;1.50;1.23;;;;;25.20;100685.00;;;;2078837;28;20202;-53
2022/08/02 03:54:59;;;;;;;1.70;1.60;;;;;25.20;100710.00;;;;2078751;28;20544;-53
2022/08/02 03:56:00;;;;;;;1.50;1.30;;;;;25.20;100706.00;;;;2086981;28;20212;-53
2022/08/02 03:57:00;;;;;;;1.43;1.23;;;;;25.20;100714.00;;;;2087099;28;20220;-53
2022/08/02 03:58:00;;;;;;;1.40;1.20;;;;;25.20;100709.00;;;;2086070;28;20232;-53
2022/08/02 03:59:07;;;;;;;2.00;1.37;;;;;25.20;100710.00;;;;2078610;28;20217;-53
2022/08/02 04:00:09;;;;;;;1.95;1.42;;;;;25.20;100704.00;;;;2083557;28;20228;-53
2022/08/02 04:01:09;;;;;;;1.38;1.20;;;;;25.20;100713.00;;;;2079759;28;20217;-53
2022/08/02 04:02:10;;;;;;;2.00;1.27;;;;;25.20;100722.00;;;;2079374;28;20225;-53
2022/08/02 04:03:10;;;;;;;1.30;1.20;;;;;25.20;100720.00;;;;2085296;28;20247;-53
2022/08/02 04:04:10;;;;;;;1.40;1.00;;;;;25.20;100720.00;;;;2087514;28;20217;-53
2022/08/02 04:05:11;;;;;;;1.17;1.03;;;;;25.20;100718.00;;;;2087382;28;20213;-55
2022/08/02 04:06:11;;;;;;;2.33;1.40;;;;;25.20;100716.00;;;;2086871;28;20223;-53
2022/08/02 04:07:11;;;;;;;1.30;1.20;;;;;25.20;100720.00;;;;2086760;28;20219;-53
2022/08/02 04:08:12;;;;;;;2.37;1.60;;;;;25.20;100718.00;;;;2079561;28;20213;-53
2022/08/02 04:09:12;;;;;;;1.57;1.40;;;;;25.20;100713.00;;;;2086035;28;20228;-53
2022/08/02 04:10:12;;;;;;;1.30;1.20;;;;;25.20;100714.00;;;;2079330;28;20229;-53
2022/08/02 04:11:31;;;;;;;1.90;1.40;;;;;25.20;100713.00;;;;2079158;28;20247;-53
2022/08/02 04:12:31;;;;;;;1.60;1.50;;;;;25.20;100708.00;;;;2084367;28;20429;-53
2022/08/02 04:13:33;;;;;;;1.40;1.30;;;;;25.20;100717.00;;;;2087428;28;20259;-53
2022/08/02 04:14:34;;;;;;;1.40;1.30;;;;;25.20;100714.00;;;;2086610;28;20221;-52
2022/08/02 04:15:34;;;;;;;1.50;1.40;;;;;25.20;100716.00;;;;2086870;28;20447;-52
2022/08/02 04:16:45;;;;;;;1.57;1.30;;;;;25.20;100706.00;;;;2086874;28;20224;-53
2022/08/02 04:17:49;;;;;;;1.33;1.23;;;;;25.20;100713.00;;;;2085782;28;20579;-53
2022/08/02 04:18:54;;;;;;;1.30;1.20;;;;;25.20;100731.00;;;;2086675;28;20509;-53
2022/08/02 04:20:21;;;;;;;1.50;1.27;;;;;25.20;100722.00;;;;2080011;28;20226;-53
2022/08/02 04:21:25;;;;;;;1.33;1.20;;;;;25.20;100723.00;;;;2080308;28;20459;-53
2022/08/02 04:22:30;;;;;;;1.43;1.33;;;;;25.20;100721.00;;;;2074004;28;20468;-52
2022/08/02 04:23:30;;;;;;;1.92;1.33;;;;;25.20;100725.00;;;;2078789;28;20455;-52
2022/08/02 04:24:35;;;;;;;1.53;1.30;;;;;25.20;100724.00;;;;2077883;28;20592;-52
2022/08/02 04:25:35;;;;;;;2.07;1.30;;;;;24.70;100725.00;;;;2078133;28;20700;-52
2022/08/02 04:26:35;;;;;;;1.50;1.40;;;;;25.20;100713.00;;;;2058819;28;20467;-52
2022/08/02 04:27:36;;;;;;;2.00;1.37;;;;;25.20;100768.00;;;;2060080;28;20289;-52
2022/08/02 04:28:37;;;;;;;1.90;1.03;;;;;25.20;100687.00;;;;2078025;28;20221;-52
2022/08/02 04:29:37;;;;;;;1.20;1.10;;;;;25.20;100727.00;;;;2069558;28;21020;-52
2022/08/02 04:30:37;;;;;;;1.43;1.10;;;;;25.20;100718.00;;;;2062151;28;20238;-52
2022/08/02 04:31:38;;;;;;;1.47;1.33;;;;;25.20;100726.00;;;;2077379;28;20266;-53
2022/08/02 04:32:38;;;;;;;1.60;1.30;;;;;25.20;100720.00;;;;2068583;28;20273;-58
2022/08/02 04:33:38;;;;;;;1.20;1.10;;;;;25.20;100724.00;;;;2066387;28;20241;-56
2022/08/02 04:34:39;;;;;;;1.40;1.27;;;;;25.20;100724.00;;;;2069912;28;20240;-52
2022/08/02 04:35:39;;;;;;;1.53;1.40;;;;;25.20;100727.00;;;;2078869;28;20241;-53
2022/08/02 04:36:39;;;;;;;0.90;0.80;;;;;25.20;100726.00;;;;2078534;28;20249;-53
2022/08/02 04:37:40;;;;;;;1.20;1.10;;;;;25.20;100721.00;;;;2065111;28;20234;-54
2022/08/02 04:38:40;;;;;;;1.40;1.30;;;;;25.20;100729.00;;;;2062149;28;20215;-54
2022/08/02 04:39:41;;;;;;;1.53;1.33;;;;;25.20;100734.00;;;;2069833;28;20253;-54
2022/08/02 04:40:49;;;;;;;1.57;1.47;;;;;25.20;100728.00;;;;2060915;28;20712;-53
2022/08/02 04:41:50;;;;;;;1.20;1.10;;;;;25.20;100724.00;;;;2068693;28;20209;-53
2022/08/02 04:42:50;;;;;;;1.40;1.30;;;;;25.20;100727.00;;;;2079215;28;20293;-54
2022/08/02 04:43:51;;;;;;;1.43;1.23;;;;;25.20;100732.00;;;;2079287;28;20205;-52
2022/08/02 04:44:51;;;;;;;1.40;1.20;;;;;25.20;100727.00;;;;2077294;28;20305;-53
2022/08/02 04:45:52;;;;;;;1.23;1.13;;;;;25.20;100729.00;;;;2078086;28;20484;-52
2022/08/02 04:46:54;;;;;;;1.63;1.10;;;;;25.20;100727.00;;;;2079064;28;20266;-52
2022/08/02 04:47:54;;;;;;;1.75;1.10;;;;;25.20;100724.00;;;;2077341;28;20987;-52
2022/08/02 04:48:54;;;;;;;1.47;1.20;;;;;25.20;100727.00;;;;2068733;28;20224;-52
2022/08/02 04:49:55;;;;;;;1.70;1.47;;;;;25.20;100721.00;;;;2086565;28;20829;-53
2022/08/02 04:50:55;;;;;;;1.60;1.50;;;;;25.20;100716.00;;;;2080801;28;20209;-52
2022/08/02 04:51:55;;;;;;;1.70;1.27;;;;;25.20;100722.00;;;;2079087;28;20233;-52
2022/08/02 04:52:56;;;;;;;1.20;1.00;;;;;25.20;100717.00;;;;2078966;28;20323;-53
2022/08/02 04:53:56;;;;;;;1.50;1.40;;;;;25.20;100727.00;;;;2078897;28;20259;-53
2022/08/02 04:54:56;;;;;;;1.13;1.03;;;;;25.20;100726.00;;;;2078868;28;20207;-52
2022/08/02 04:55:57;;;;;;;1.33;1.20;;;;;25.20;100728.00;;;;2078939;28;20210;-52
2022/08/02 04:56:57;;;;;;;1.17;1.07;;;;;25.20;100725.00;;;;2078893;28;20310;-52
2022/08/02 04:57:58;;;;;;;1.23;1.13;;;;;25.20;100725.00;;;;2078001;28;20205;-53
2022/08/02 04:58:58;;;;;;;1.53;1.43;;;;;25.20;100728.00;;;;2072844;28;20288;-53
2022/08/02 04:59:58;;;;;;;1.30;1.20;;;;;25.20;100724.00;;;;2070602;28;20248;-52
2022/08/02 05:00:59;;;;;;;2.03;1.30;;;;;25.20;100732.00;;;;2074540;28;20202;-52
2022/08/02 05:01:59;;;;;;;1.47;1.23;;;;;25.20;100730.00;;;;2078875;28;20220;-53
2022/08/02 05:03:00;;;;;;;1.60;1.43;;;;;25.20;100727.00;;;;2078974;28;20209;-52
2022/08/02 05:04:00;;;;;;;1.20;1.10;;;;;25.20;100736.00;;;;2078123;28;20206;-52
2022/08/02 05:05:00;;;;;;;1.10;1.00;;;;;25.20;100724.00;;;;2069941;28;20290;-52
2022/08/02 05:06:01;;;;;;;1.50;1.40;;;;;25.20;100730.00;;;;2078279;28;20220;-52
2022/08/02 05:07:01;;;;;;;1.17;1.07;;;;;24.50;100735.00;;;;2078849;28;20206;-52